sensor_id;sensor_type;location;lat;lon;timestamp;temperature;humidity
17370;DHT22;8802;52.402;4.920;2023-04-01T00:01:28;13.60;99.90
17370;DHT22;8802;52.402;4.920;2023-04-01T00:03:55;13.60;99.90
17370;DHT22;8802;52.402;4.920;2023-04-01T00:06:23;13.60;99.90
17370;DHT22;8802;52.402;4.920;2023-04-01T00:08:50;13.60;99.90
17370;DHT22;8802;52.402;4.920;2023-04-01T00:11:18;13.50;99.90
17370;DHT22;8802;52.402;4.920;2023-04-01T00:13:46;13.60;99.90
17370;DHT22;8802;52.402;4.920;2023-04-01T00:16:13;13.60;99.90
17370;DHT22;8802;52.402;4.920;2023-04-01T00:18:41;13.60;99.90
17370;DHT22;8802;52.402;4.920;2023-04-01T00:21:07;13.60;99.90
17370;DHT22;8802;52.402;4.920;2023-04-01T00:23:34;13.60;99.90
17370;DHT22;8802;52.402;4.920;2023-04-01T00:26:02;13.60;99.90
17370;DHT22;8802;52.402;4.920;2023-04-01T00:28:29;13.60;99.90
17370;DHT22;8802;52.402;4.920;2023-04-01T00:30:57;13.60;99.90
17370;DHT22;8802;52.402;4.920;2023-04-01T00:33:24;13.60;99.90
17370;DHT22;8802;52.402;4.920;2023-04-01T00:35:53;13.60;99.90
17370;DHT22;8802;52.402;4.920;2023-04-01T00:38:19;13.60;99.90
17370;DHT22;8802;52.402;4.920;2023-04-01T00:40:47;13.60;99.90
17370;DHT22;8802;52.402;4.920;2023-04-01T00:43:16;13.60;99.90
17370;DHT22;8802;52.402;4.920;2023-04-01T00:45:46;13.60;99.90
17370;DHT22;8802;52.402;4.920;2023-04-01T00:48:17;13.50;99.90
17370;DHT22;8802;52.402;4.920;2023-04-01T00:50:47;13.50;99.90
17370;DHT22;8802;52.402;4.920;2023-04-01T00:53:16;13.50;99.90
17370;DHT22;8802;52.402;4.920;2023-04-01T00:55:49;13.50;99.90
17370;DHT22;8802;52.402;4.920;2023-04-01T00:58:18;13.50;99.90
17370;DHT22;8802;52.402;4.920;2023-04-01T01:00:48;13.50;99.90
17370;DHT22;8802;52.402;4.920;2023-04-01T01:03:17;13.50;99.90
17370;DHT22;8802;52.402;4.920;2023-04-01T01:06:04;13.50;99.90
17370;DHT22;8802;52.402;4.920;2023-04-01T01:08:44;13.50;99.90
17370;DHT22;8802;52.402;4.920;2023-04-01T01:11:14;13.50;99.90
17370;DHT22;8802;52.402;4.920;2023-04-01T01:13:48;13.50;99.90
17370;DHT22;8802;52.402;4.920;2023-04-01T01:16:22;13.50;99.90
17370;DHT22;8802;52.402;4.920;2023-04-01T01:19:00;13.50;99.90
17370;DHT22;8802;52.402;4.920;2023-04-01T01:24:40;13.50;99.90
17370;DHT22;8802;52.402;4.920;2023-04-01T01:27:09;13.50;99.90
17370;DHT22;8802;52.402;4.920;2023-04-01T01:29:52;13.50;99.90
17370;DHT22;8802;52.402;4.920;2023-04-01T01:32:43;13.50;99.90
17370;DHT22;8802;52.402;4.920;2023-04-01T01:35:19;13.50;99.90
17370;DHT22;8802;52.402;4.920;2023-04-01T01:37:50;13.50;99.90
17370;DHT22;8802;52.402;4.920;2023-04-01T01:40:18;13.50;99.90
17370;DHT22;8802;52.402;4.920;2023-04-01T01:42:49;13.50;99.90
17370;DHT22;8802;52.402;4.920;2023-04-01T01:45:20;13.50;99.90
17370;DHT22;8802;52.402;4.920;2023-04-01T01:47:49;13.50;99.90
17370;DHT22;8802;52.402;4.920;2023-04-01T01:50:19;13.50;99.90
17370;DHT22;8802;52.402;4.920;2023-04-01T01:52:47;13.50;99.90
17370;DHT22;8802;52.402;4.920;2023-04-01T01:55:27;13.50;99.90
17370;DHT22;8802;52.402;4.920;2023-04-01T01:57:56;13.50;99.90
17370;DHT22;8802;52.402;4.920;2023-04-01T02:00:25;13.50;99.90
17370;DHT22;8802;52.402;4.920;2023-04-01T02:02:53;13.50;99.90
17370;DHT22;8802;52.402;4.920;2023-04-01T02:05:24;13.50;99.90
17370;DHT22;8802;52.402;4.920;2023-04-01T02:08:00;13.50;99.90
17370;DHT22;8802;52.402;4.920;2023-04-01T02:10:29;13.50;99.90
17370;DHT22;8802;52.402;4.920;2023-04-01T02:13:00;13.50;99.90
17370;DHT22;8802;52.402;4.920;2023-04-01T02:15:31;13.50;99.90
17370;DHT22;8802;52.402;4.920;2023-04-01T02:18:01;13.50;99.90
17370;DHT22;8802;52.402;4.920;2023-04-01T02:20:30;13.50;99.90
17370;DHT22;8802;52.402;4.920;2023-04-01T02:22:58;13.50;99.90
17370;DHT22;8802;52.402;4.920;2023-04-01T02:25:28;13.50;99.90
17370;DHT22;8802;52.402;4.920;2023-04-01T02:27:57;13.50;99.90
17370;DHT22;8802;52.402;4.920;2023-04-01T02:30:27;13.50;99.90
17370;DHT22;8802;52.402;4.920;2023-04-01T02:32:55;13.50;99.90
17370;DHT22;8802;52.402;4.920;2023-04-01T02:35:23;13.50;99.90
17370;DHT22;8802;52.402;4.920;2023-04-01T02:37:54;13.50;99.90
17370;DHT22;8802;52.402;4.920;2023-04-01T02:40:21;13.50;99.90
17370;DHT22;8802;52.402;4.920;2023-04-01T02:42:49;13.50;99.90
17370;DHT22;8802;52.402;4.920;2023-04-01T02:45:16;13.50;99.90
17370;DHT22;8802;52.402;4.920;2023-04-01T02:47:43;13.50;99.90
17370;DHT22;8802;52.402;4.920;2023-04-01T02:50:10;13.60;99.90
17370;DHT22;8802;52.402;4.920;2023-04-01T02:52:37;13.50;99.90
17370;DHT22;8802;52.402;4.920;2023-04-01T02:55:06;13.50;99.90
17370;DHT22;8802;52.402;4.920;2023-04-01T02:57:33;13.50;99.90
17370;DHT22;8802;52.402;4.920;2023-04-01T03:00:00;13.50;99.90
17370;DHT22;8802;52.402;4.920;2023-04-01T03:02:27;13.60;99.90
17370;DHT22;8802;52.402;4.920;2023-04-01T03:04:53;13.60;99.90
17370;DHT22;8802;52.402;4.920;2023-04-01T03:07:20;13.50;99.90
17370;DHT22;8802;52.402;4.920;2023-04-01T03:09:47;13.50;99.90
17370;DHT22;8802;52.402;4.920;2023-04-01T03:12:15;13.50;99.90
17370;DHT22;8802;52.402;4.920;2023-04-01T03:14:42;13.50;99.90
17370;DHT22;8802;52.402;4.920;2023-04-01T03:17:09;13.50;99.90
17370;DHT22;8802;52.402;4.920;2023-04-01T03:19:36;13.60;99.90
17370;DHT22;8802;52.402;4.920;2023-04-01T03:22:03;13.60;99.90
17370;DHT22;8802;52.402;4.920;2023-04-01T03:24:29;13.60;99.90
17370;DHT22;8802;52.402;4.920;2023-04-01T03:26:56;13.60;99.90
17370;DHT22;8802;52.402;4.920;2023-04-01T03:29:25;13.60;99.90
17370;DHT22;8802;52.402;4.920;2023-04-01T03:31:51;13.60;99.90
17370;DHT22;8802;52.402;4.920;2023-04-01T03:34:18;13.60;99.90
17370;DHT22;8802;52.402;4.920;2023-04-01T03:36:45;13.60;99.90
17370;DHT22;8802;52.402;4.920;2023-04-01T03:39:12;13.60;99.90
17370;DHT22;8802;52.402;4.920;2023-04-01T03:41:39;13.60;99.90
17370;DHT22;8802;52.402;4.920;2023-04-01T03:44:06;13.60;99.90
17370;DHT22;8802;52.402;4.920;2023-04-01T03:46:34;13.60;99.90
17370;DHT22;8802;52.402;4.920;2023-04-01T03:49:01;13.60;99.90
17370;DHT22;8802;52.402;4.920;2023-04-01T03:51:28;13.60;99.90
17370;DHT22;8802;52.402;4.920;2023-04-01T03:53:55;13.60;99.90
17370;DHT22;8802;52.402;4.920;2023-04-01T03:56:22;13.60;99.90
17370;DHT22;8802;52.402;4.920;2023-04-01T03:58:49;13.60;99.90
17370;DHT22;8802;52.402;4.920;2023-04-01T04:01:19;13.60;99.90
17370;DHT22;8802;52.402;4.920;2023-04-01T04:03:48;13.60;99.90
17370;DHT22;8802;52.402;4.920;2023-04-01T04:06:16;13.50;99.90
17370;DHT22;8802;52.402;4.920;2023-04-01T04:08:44;13.50;99.90
17370;DHT22;8802;52.402;4.920;2023-04-01T04:11:11;13.50;99.90
17370;DHT22;8802;52.402;4.920;2023-04-01T04:13:38;13.50;99.90
17370;DHT22;8802;52.402;4.920;2023-04-01T04:16:05;13.50;99.90
17370;DHT22;8802;52.402;4.920;2023-04-01T04:18:33;13.50;99.90
17370;DHT22;8802;52.402;4.920;2023-04-01T04:21:01;13.50;99.90
17370;DHT22;8802;52.402;4.920;2023-04-01T04:23:28;13.50;99.90
17370;DHT22;8802;52.402;4.920;2023-04-01T04:25:58;13.50;99.90
17370;DHT22;8802;52.402;4.920;2023-04-01T04:28:25;13.50;99.90
17370;DHT22;8802;52.402;4.920;2023-04-01T04:30:53;13.50;99.90
17370;DHT22;8802;52.402;4.920;2023-04-01T04:33:20;13.50;99.90
17370;DHT22;8802;52.402;4.920;2023-04-01T04:35:47;13.50;99.90
17370;DHT22;8802;52.402;4.920;2023-04-01T04:38:16;13.50;99.90
17370;DHT22;8802;52.402;4.920;2023-04-01T04:40:43;13.50;99.90
17370;DHT22;8802;52.402;4.920;2023-04-01T04:43:11;13.50;99.90
17370;DHT22;8802;52.402;4.920;2023-04-01T04:45:38;13.50;99.90
17370;DHT22;8802;52.402;4.920;2023-04-01T04:48:07;13.50;99.90
17370;DHT22;8802;52.402;4.920;2023-04-01T04:50:34;13.50;99.90
17370;DHT22;8802;52.402;4.920;2023-04-01T04:53:02;13.50;99.90
17370;DHT22;8802;52.402;4.920;2023-04-01T04:55:30;13.50;99.90
17370;DHT22;8802;52.402;4.920;2023-04-01T04:57:57;13.50;99.90
17370;DHT22;8802;52.402;4.920;2023-04-01T05:00:24;13.50;99.90
17370;DHT22;8802;52.402;4.920;2023-04-01T05:02:51;13.50;99.90
17370;DHT22;8802;52.402;4.920;2023-04-01T05:05:17;13.50;99.90
17370;DHT22;8802;52.402;4.920;2023-04-01T05:07:44;13.50;99.90
17370;DHT22;8802;52.402;4.920;2023-04-01T05:10:11;13.50;99.90
17370;DHT22;8802;52.402;4.920;2023-04-01T05:12:39;13.50;99.90
17370;DHT22;8802;52.402;4.920;2023-04-01T05:15:07;13.50;99.90
17370;DHT22;8802;52.402;4.920;2023-04-01T05:17:34;13.50;99.90
17370;DHT22;8802;52.402;4.920;2023-04-01T05:20:01;13.50;99.90
17370;DHT22;8802;52.402;4.920;2023-04-01T05:22:28;13.50;99.90
17370;DHT22;8802;52.402;4.920;2023-04-01T05:24:55;13.40;99.90
17370;DHT22;8802;52.402;4.920;2023-04-01T05:27:22;13.40;99.90
17370;DHT22;8802;52.402;4.920;2023-04-01T05:29:50;13.50;99.90
17370;DHT22;8802;52.402;4.920;2023-04-01T05:32:17;13.50;99.90
17370;DHT22;8802;52.402;4.920;2023-04-01T05:34:44;13.50;99.90
17370;DHT22;8802;52.402;4.920;2023-04-01T05:37:11;13.50;99.90
17370;DHT22;8802;52.402;4.920;2023-04-01T05:39:38;13.50;99.90
17370;DHT22;8802;52.402;4.920;2023-04-01T05:42:06;13.50;99.90
17370;DHT22;8802;52.402;4.920;2023-04-01T05:44:33;13.50;99.90
17370;DHT22;8802;52.402;4.920;2023-04-01T05:47:03;13.50;99.90
17370;DHT22;8802;52.402;4.920;2023-04-01T05:49:30;13.50;99.90
17370;DHT22;8802;52.402;4.920;2023-04-01T05:51:57;13.50;99.90
17370;DHT22;8802;52.402;4.920;2023-04-01T05:54:24;13.40;99.90
17370;DHT22;8802;52.402;4.920;2023-04-01T05:56:51;13.50;99.90
17370;DHT22;8802;52.402;4.920;2023-04-01T05:59:17;13.40;99.90
17370;DHT22;8802;52.402;4.920;2023-04-01T06:01:44;13.40;99.90
17370;DHT22;8802;52.402;4.920;2023-04-01T06:04:15;13.40;99.90
17370;DHT22;8802;52.402;4.920;2023-04-01T06:06:43;13.40;99.90
17370;DHT22;8802;52.402;4.920;2023-04-01T06:09:15;13.50;99.90
17370;DHT22;8802;52.402;4.920;2023-04-01T06:12:08;13.40;99.90
17370;DHT22;8802;52.402;4.920;2023-04-01T06:14:43;13.40;99.90
17370;DHT22;8802;52.402;4.920;2023-04-01T06:17:26;13.40;99.90
17370;DHT22;8802;52.402;4.920;2023-04-01T06:20:00;13.40;99.90
17370;DHT22;8802;52.402;4.920;2023-04-01T06:22:40;13.40;99.90
17370;DHT22;8802;52.402;4.920;2023-04-01T06:25:34;13.40;99.90
17370;DHT22;8802;52.402;4.920;2023-04-01T06:28:29;13.40;99.90
17370;DHT22;8802;52.402;4.920;2023-04-01T06:31:05;13.40;99.90
17370;DHT22;8802;52.402;4.920;2023-04-01T06:34:12;13.40;99.90
17370;DHT22;8802;52.402;4.920;2023-04-01T06:36:57;13.40;99.90
17370;DHT22;8802;52.402;4.920;2023-04-01T06:42:46;13.40;99.90
17370;DHT22;8802;52.402;4.920;2023-04-01T06:45:29;13.40;99.90
17370;DHT22;8802;52.402;4.920;2023-04-01T06:48:10;13.40;99.90
17370;DHT22;8802;52.402;4.920;2023-04-01T06:50:45;13.40;99.90
17370;DHT22;8802;52.402;4.920;2023-04-01T06:53:23;13.40;99.90
17370;DHT22;8802;52.402;4.920;2023-04-01T06:55:59;13.40;99.90
17370;DHT22;8802;52.402;4.920;2023-04-01T06:58:30;13.40;99.90
17370;DHT22;8802;52.402;4.920;2023-04-01T07:01:02;13.40;99.90
17370;DHT22;8802;52.402;4.920;2023-04-01T07:03:33;13.40;99.90
17370;DHT22;8802;52.402;4.920;2023-04-01T07:06:03;13.40;99.90
17370;DHT22;8802;52.402;4.920;2023-04-01T07:08:34;13.40;99.90
17370;DHT22;8802;52.402;4.920;2023-04-01T07:11:03;13.40;99.90
17370;DHT22;8802;52.402;4.920;2023-04-01T07:13:33;13.40;99.90
17370;DHT22;8802;52.402;4.920;2023-04-01T07:16:11;13.40;99.90
17370;DHT22;8802;52.402;4.920;2023-04-01T07:18:42;13.40;99.90
17370;DHT22;8802;52.402;4.920;2023-04-01T07:21:23;13.40;99.90
17370;DHT22;8802;52.402;4.920;2023-04-01T07:23:56;13.50;99.90
17370;DHT22;8802;52.402;4.920;2023-04-01T07:26:24;13.40;99.90
17370;DHT22;8802;52.402;4.920;2023-04-01T07:28:53;13.50;99.90
17370;DHT22;8802;52.402;4.920;2023-04-01T07:31:29;13.50;99.90
17370;DHT22;8802;52.402;4.920;2023-04-01T07:34:04;13.50;99.90
17370;DHT22;8802;52.402;4.920;2023-04-01T07:36:37;13.50;99.90
17370;DHT22;8802;52.402;4.920;2023-04-01T07:39:13;13.50;99.90
17370;DHT22;8802;52.402;4.920;2023-04-01T07:41:51;13.50;99.90
17370;DHT22;8802;52.402;4.920;2023-04-01T07:44:27;13.50;99.90
17370;DHT22;8802;52.402;4.920;2023-04-01T07:47:07;13.50;99.90
17370;DHT22;8802;52.402;4.920;2023-04-01T07:49:42;13.50;99.90
17370;DHT22;8802;52.402;4.920;2023-04-01T07:52:14;13.50;99.90
17370;DHT22;8802;52.402;4.920;2023-04-01T07:54:50;13.50;99.90
17370;DHT22;8802;52.402;4.920;2023-04-01T07:57:23;13.50;99.90
17370;DHT22;8802;52.402;4.920;2023-04-01T07:59:58;13.50;99.90
17370;DHT22;8802;52.402;4.920;2023-04-01T08:02:35;13.50;99.90
17370;DHT22;8802;52.402;4.920;2023-04-01T08:05:17;13.60;99.90
17370;DHT22;8802;52.402;4.920;2023-04-01T08:07:50;13.60;99.90
17370;DHT22;8802;52.402;4.920;2023-04-01T08:10:25;13.60;99.90
17370;DHT22;8802;52.402;4.920;2023-04-01T08:13:00;13.60;99.90
17370;DHT22;8802;52.402;4.920;2023-04-01T08:15:35;13.60;99.90
17370;DHT22;8802;52.402;4.920;2023-04-01T08:18:14;13.60;99.90
17370;DHT22;8802;52.402;4.920;2023-04-01T08:20:47;13.60;99.90
17370;DHT22;8802;52.402;4.920;2023-04-01T08:23:18;13.60;99.90
17370;DHT22;8802;52.402;4.920;2023-04-01T08:25:52;13.70;99.90
17370;DHT22;8802;52.402;4.920;2023-04-01T08:28:23;13.70;99.90
17370;DHT22;8802;52.402;4.920;2023-04-01T08:30:53;13.70;99.90
17370;DHT22;8802;52.402;4.920;2023-04-01T08:33:25;13.70;99.90
17370;DHT22;8802;52.402;4.920;2023-04-01T08:35:56;13.70;99.90
17370;DHT22;8802;52.402;4.920;2023-04-01T08:38:28;13.70;99.90
17370;DHT22;8802;52.402;4.920;2023-04-01T08:41:20;13.70;99.90
17370;DHT22;8802;52.402;4.920;2023-04-01T08:44:04;13.70;99.90
17370;DHT22;8802;52.402;4.920;2023-04-01T08:47:13;13.70;99.90
17370;DHT22;8802;52.402;4.920;2023-04-01T08:52:44;13.80;99.90
17370;DHT22;8802;52.402;4.920;2023-04-01T08:55:27;13.80;99.90
17370;DHT22;8802;52.402;4.920;2023-04-01T09:01:14;13.80;99.90
17370;DHT22;8802;52.402;4.920;2023-04-01T09:03:56;13.90;99.90
17370;DHT22;8802;52.402;4.920;2023-04-01T09:06:42;13.90;99.90
17370;DHT22;8802;52.402;4.920;2023-04-01T09:09:36;13.90;99.90
17370;DHT22;8802;52.402;4.920;2023-04-01T09:12:31;13.90;99.90
17370;DHT22;8802;52.402;4.920;2023-04-01T09:18:20;13.90;99.90
17370;DHT22;8802;52.402;4.920;2023-04-01T09:21:08;13.90;99.90
17370;DHT22;8802;52.402;4.920;2023-04-01T09:26:51;14.00;99.90
17370;DHT22;8802;52.402;4.920;2023-04-01T09:29:32;14.00;99.90
17370;DHT22;8802;52.402;4.920;2023-04-01T09:32:17;14.10;99.90
17370;DHT22;8802;52.402;4.920;2023-04-01T09:34:53;14.10;99.90
17370;DHT22;8802;52.402;4.920;2023-04-01T09:37:33;14.10;99.90
17370;DHT22;8802;52.402;4.920;2023-04-01T09:40:14;14.10;99.90
17370;DHT22;8802;52.402;4.920;2023-04-01T09:42:45;14.10;99.90
17370;DHT22;8802;52.402;4.920;2023-04-01T09:45:41;14.10;99.90
17370;DHT22;8802;52.402;4.920;2023-04-01T09:48:31;14.10;99.90
17370;DHT22;8802;52.402;4.920;2023-04-01T09:51:08;14.10;99.90
17370;DHT22;8802;52.402;4.920;2023-04-01T09:53:53;14.20;99.90
17370;DHT22;8802;52.402;4.920;2023-04-01T10:03:01;14.20;99.90
17370;DHT22;8802;52.402;4.920;2023-04-01T10:05:57;14.20;99.90
17370;DHT22;8802;52.402;4.920;2023-04-01T10:18:21;14.20;99.90
17370;DHT22;8802;52.402;4.920;2023-04-01T10:21:11;14.30;99.90
17370;DHT22;8802;52.402;4.920;2023-04-01T10:26:57;14.30;99.90
17370;DHT22;8802;52.402;4.920;2023-04-01T10:29:58;14.40;99.90
17370;DHT22;8802;52.402;4.920;2023-04-01T10:33:12;14.40;99.90
17370;DHT22;8802;52.402;4.920;2023-04-01T10:39:37;14.50;99.90
17370;DHT22;8802;52.402;4.920;2023-04-01T10:49:06;14.60;99.90
17370;DHT22;8802;52.402;4.920;2023-04-01T10:54:49;14.60;99.90
17370;DHT22;8802;52.402;4.920;2023-04-01T10:57:41;14.60;99.90
17370;DHT22;8802;52.402;4.920;2023-04-01T11:03:46;14.70;99.90
17370;DHT22;8802;52.402;4.920;2023-04-01T11:06:45;14.70;99.90
17370;DHT22;8802;52.402;4.920;2023-04-01T11:09:50;14.70;99.90
17370;DHT22;8802;52.402;4.920;2023-04-01T11:12:53;14.70;99.90
17370;DHT22;8802;52.402;4.920;2023-04-01T11:15:45;14.70;99.90
17370;DHT22;8802;52.402;4.920;2023-04-01T11:24:40;14.70;99.90
17370;DHT22;8802;52.402;4.920;2023-04-01T11:27:29;14.70;99.90
17370;DHT22;8802;52.402;4.920;2023-04-01T11:30:19;14.70;99.90
17370;DHT22;8802;52.402;4.920;2023-04-01T11:32:52;14.70;99.90
17370;DHT22;8802;52.402;4.920;2023-04-01T11:38:37;14.70;99.90
17370;DHT22;8802;52.402;4.920;2023-04-01T11:41:18;14.70;99.90
17370;DHT22;8802;52.402;4.920;2023-04-01T11:44:04;14.80;99.90
17370;DHT22;8802;52.402;4.920;2023-04-01T11:46:40;14.80;99.90
17370;DHT22;8802;52.402;4.920;2023-04-01T11:49:23;14.80;99.90
17370;DHT22;8802;52.402;4.920;2023-04-01T11:52:00;14.80;99.90
17370;DHT22;8802;52.402;4.920;2023-04-01T11:54:42;14.90;99.90
17370;DHT22;8802;52.402;4.920;2023-04-01T11:57:26;14.90;99.90
17370;DHT22;8802;52.402;4.920;2023-04-01T12:00:02;14.90;99.90
17370;DHT22;8802;52.402;4.920;2023-04-01T12:02:44;15.00;99.90
17370;DHT22;8802;52.402;4.920;2023-04-01T12:05:25;15.00;99.90
17370;DHT22;8802;52.402;4.920;2023-04-01T12:08:06;15.00;99.90
17370;DHT22;8802;52.402;4.920;2023-04-01T12:10:39;15.00;99.90
17370;DHT22;8802;52.402;4.920;2023-04-01T12:13:14;15.10;99.90
17370;DHT22;8802;52.402;4.920;2023-04-01T12:15:58;15.10;99.90
17370;DHT22;8802;52.402;4.920;2023-04-01T12:18:33;15.10;99.90
17370;DHT22;8802;52.402;4.920;2023-04-01T12:21:12;15.10;99.90
17370;DHT22;8802;52.402;4.920;2023-04-01T12:24:25;15.10;99.90
17370;DHT22;8802;52.402;4.920;2023-04-01T12:27:12;15.10;99.90
17370;DHT22;8802;52.402;4.920;2023-04-01T12:30:21;15.10;99.90
17370;DHT22;8802;52.402;4.920;2023-04-01T12:33:01;15.10;99.90
17370;DHT22;8802;52.402;4.920;2023-04-01T12:35:41;15.10;99.90
17370;DHT22;8802;52.402;4.920;2023-04-01T12:38:19;15.10;99.90
17370;DHT22;8802;52.402;4.920;2023-04-01T12:41:08;15.10;99.90
17370;DHT22;8802;52.402;4.920;2023-04-01T12:43:55;15.10;99.90
17370;DHT22;8802;52.402;4.920;2023-04-01T12:46:30;15.10;99.90
17370;DHT22;8802;52.402;4.920;2023-04-01T12:49:17;15.00;99.90
17370;DHT22;8802;52.402;4.920;2023-04-01T12:51:56;15.00;99.90
17370;DHT22;8802;52.402;4.920;2023-04-01T12:54:58;15.00;99.90
17370;DHT22;8802;52.402;4.920;2023-04-01T13:01:00;15.00;99.90
17370;DHT22;8802;52.402;4.920;2023-04-01T13:06:38;14.90;99.90
17370;DHT22;8802;52.402;4.920;2023-04-01T13:09:23;15.00;99.90
17370;DHT22;8802;52.402;4.920;2023-04-01T13:12:06;14.90;99.90
17370;DHT22;8802;52.402;4.920;2023-04-01T13:15:05;14.90;99.90
17370;DHT22;8802;52.402;4.920;2023-04-01T13:17:41;14.90;99.90
17370;DHT22;8802;52.402;4.920;2023-04-01T13:20:19;14.90;99.90
17370;DHT22;8802;52.402;4.920;2023-04-01T13:23:01;14.80;99.90
17370;DHT22;8802;52.402;4.920;2023-04-01T13:25:36;14.80;99.90
17370;DHT22;8802;52.402;4.920;2023-04-01T13:28:11;14.80;99.90
17370;DHT22;8802;52.402;4.920;2023-04-01T13:30:45;14.80;99.90
17370;DHT22;8802;52.402;4.920;2023-04-01T13:33:20;14.80;99.90
17370;DHT22;8802;52.402;4.920;2023-04-01T13:36:02;14.70;99.90
17370;DHT22;8802;52.402;4.920;2023-04-01T13:38:52;14.70;99.90
17370;DHT22;8802;52.402;4.920;2023-04-01T13:41:33;14.70;99.90
17370;DHT22;8802;52.402;4.920;2023-04-01T13:44:08;14.60;99.90
17370;DHT22;8802;52.402;4.920;2023-04-01T13:46:54;14.60;99.90
17370;DHT22;8802;52.402;4.920;2023-04-01T13:49:44;14.60;99.90
17370;DHT22;8802;52.402;4.920;2023-04-01T13:58:38;14.50;99.90
17370;DHT22;8802;52.402;4.920;2023-04-01T14:01:13;14.50;99.90
17370;DHT22;8802;52.402;4.920;2023-04-01T14:04:03;14.40;99.90
17370;DHT22;8802;52.402;4.920;2023-04-01T14:06:38;14.40;99.90
17370;DHT22;8802;52.402;4.920;2023-04-01T14:09:25;14.40;99.90
17370;DHT22;8802;52.402;4.920;2023-04-01T14:12:04;14.30;99.90
17370;DHT22;8802;52.402;4.920;2023-04-01T14:14:41;14.30;99.90
17370;DHT22;8802;52.402;4.920;2023-04-01T14:17:33;14.30;99.90
17370;DHT22;8802;52.402;4.920;2023-04-01T14:20:26;14.20;99.90
17370;DHT22;8802;52.402;4.920;2023-04-01T14:23:21;14.20;99.90
17370;DHT22;8802;52.402;4.920;2023-04-01T14:26:07;14.20;99.90
17370;DHT22;8802;52.402;4.920;2023-04-01T14:28:43;14.10;99.90
17370;DHT22;8802;52.402;4.920;2023-04-01T14:31:34;14.10;99.90
17370;DHT22;8802;52.402;4.920;2023-04-01T14:34:11;14.10;99.90
17370;DHT22;8802;52.402;4.920;2023-04-01T14:36:55;14.10;99.90
17370;DHT22;8802;52.402;4.920;2023-04-01T14:39:38;14.10;99.90
17370;DHT22;8802;52.402;4.920;2023-04-01T14:42:23;14.00;99.90
17370;DHT22;8802;52.402;4.920;2023-04-01T14:45:07;14.00;99.90
17370;DHT22;8802;52.402;4.920;2023-04-01T14:47:46;14.00;99.90
17370;DHT22;8802;52.402;4.920;2023-04-01T14:50:17;14.00;99.90
17370;DHT22;8802;52.402;4.920;2023-04-01T14:52:54;14.00;99.90
17370;DHT22;8802;52.402;4.920;2023-04-01T14:55:31;14.00;99.90
17370;DHT22;8802;52.402;4.920;2023-04-01T14:58:04;14.00;99.90
17370;DHT22;8802;52.402;4.920;2023-04-01T15:00:51;13.90;99.90
17370;DHT22;8802;52.402;4.920;2023-04-01T15:03:24;13.90;99.90
17370;DHT22;8802;52.402;4.920;2023-04-01T15:05:56;13.90;99.90
17370;DHT22;8802;52.402;4.920;2023-04-01T15:08:29;13.90;99.90
17370;DHT22;8802;52.402;4.920;2023-04-01T15:11:23;13.90;99.90
17370;DHT22;8802;52.402;4.920;2023-04-01T15:14:18;13.90;99.90
17370;DHT22;8802;52.402;4.920;2023-04-01T15:16:55;13.90;99.90
17370;DHT22;8802;52.402;4.920;2023-04-01T15:19:36;13.80;99.90
17370;DHT22;8802;52.402;4.920;2023-04-01T15:22:24;13.80;99.90
17370;DHT22;8802;52.402;4.920;2023-04-01T15:25:05;13.80;99.90
17370;DHT22;8802;52.402;4.920;2023-04-01T15:27:43;13.80;99.90
17370;DHT22;8802;52.402;4.920;2023-04-01T15:30:22;13.80;99.90
17370;DHT22;8802;52.402;4.920;2023-04-01T15:33:16;13.80;99.90
17370;DHT22;8802;52.402;4.920;2023-04-01T15:35:49;13.70;99.90
17370;DHT22;8802;52.402;4.920;2023-04-01T15:38:25;13.70;99.90
17370;DHT22;8802;52.402;4.920;2023-04-01T15:41:01;13.70;99.90
17370;DHT22;8802;52.402;4.920;2023-04-01T15:43:39;13.70;99.90
17370;DHT22;8802;52.402;4.920;2023-04-01T15:46:36;13.70;99.90
17370;DHT22;8802;52.402;4.920;2023-04-01T15:49:16;13.60;99.90
17370;DHT22;8802;52.402;4.920;2023-04-01T15:51:58;13.60;99.90
17370;DHT22;8802;52.402;4.920;2023-04-01T15:54:32;13.60;99.90
17370;DHT22;8802;52.402;4.920;2023-04-01T15:57:14;13.60;99.90
17370;DHT22;8802;52.402;4.920;2023-04-01T16:00:13;13.60;99.90
17370;DHT22;8802;52.402;4.920;2023-04-01T16:02:47;13.60;99.90
17370;DHT22;8802;52.402;4.920;2023-04-01T16:05:39;13.60;99.90
17370;DHT22;8802;52.402;4.920;2023-04-01T16:08:16;13.60;99.90
17370;DHT22;8802;52.402;4.920;2023-04-01T16:11:03;13.60;99.90
17370;DHT22;8802;52.402;4.920;2023-04-01T16:13:42;13.60;99.90
17370;DHT22;8802;52.402;4.920;2023-04-01T16:16:19;13.60;99.90
17370;DHT22;8802;52.402;4.920;2023-04-01T16:19:03;13.60;99.90
17370;DHT22;8802;52.402;4.920;2023-04-01T16:21:41;13.60;99.90
17370;DHT22;8802;52.402;4.920;2023-04-01T16:24:17;13.60;99.90
17370;DHT22;8802;52.402;4.920;2023-04-01T16:26:51;13.50;99.90
17370;DHT22;8802;52.402;4.920;2023-04-01T16:29:26;13.50;99.90
17370;DHT22;8802;52.402;4.920;2023-04-01T16:32:01;13.50;99.90
17370;DHT22;8802;52.402;4.920;2023-04-01T16:34:35;13.50;99.90
17370;DHT22;8802;52.402;4.920;2023-04-01T16:37:08;13.50;99.90
17370;DHT22;8802;52.402;4.920;2023-04-01T16:39:46;13.40;99.90
17370;DHT22;8802;52.402;4.920;2023-04-01T16:42:24;13.40;99.90
17370;DHT22;8802;52.402;4.920;2023-04-01T16:44:55;13.40;99.90
17370;DHT22;8802;52.402;4.920;2023-04-01T16:47:27;13.30;99.90
17370;DHT22;8802;52.402;4.920;2023-04-01T16:49:59;13.30;99.90
17370;DHT22;8802;52.402;4.920;2023-04-01T16:52:44;13.30;99.90
17370;DHT22;8802;52.402;4.920;2023-04-01T16:55:16;13.20;99.90
17370;DHT22;8802;52.402;4.920;2023-04-01T16:57:48;13.20;99.90
17370;DHT22;8802;52.402;4.920;2023-04-01T17:00:25;13.20;99.90
17370;DHT22;8802;52.402;4.920;2023-04-01T17:03:03;13.20;99.90
17370;DHT22;8802;52.402;4.920;2023-04-01T17:05:49;13.10;99.90
17370;DHT22;8802;52.402;4.920;2023-04-01T17:08:31;13.10;99.90
17370;DHT22;8802;52.402;4.920;2023-04-01T17:11:04;13.00;99.90
17370;DHT22;8802;52.402;4.920;2023-04-01T17:13:41;13.00;99.90
17370;DHT22;8802;52.402;4.920;2023-04-01T17:16:28;13.00;99.90
17370;DHT22;8802;52.402;4.920;2023-04-01T17:19:03;13.00;99.90
17370;DHT22;8802;52.402;4.920;2023-04-01T17:21:46;12.90;99.90
17370;DHT22;8802;52.402;4.920;2023-04-01T17:24:29;12.80;99.90
17370;DHT22;8802;52.402;4.920;2023-04-01T17:27:04;12.80;99.90
17370;DHT22;8802;52.402;4.920;2023-04-01T17:29:46;12.80;99.90
17370;DHT22;8802;52.402;4.920;2023-04-01T17:32:34;12.80;99.90
17370;DHT22;8802;52.402;4.920;2023-04-01T17:35:09;12.80;99.90
17370;DHT22;8802;52.402;4.920;2023-04-01T17:37:48;12.70;99.90
17370;DHT22;8802;52.402;4.920;2023-04-01T17:40:34;12.70;99.90
17370;DHT22;8802;52.402;4.920;2023-04-01T17:43:10;12.70;99.90
17370;DHT22;8802;52.402;4.920;2023-04-01T17:45:45;12.70;99.90
17370;DHT22;8802;52.402;4.920;2023-04-01T17:48:21;12.70;99.90
17370;DHT22;8802;52.402;4.920;2023-04-01T17:51:04;12.70;99.90
17370;DHT22;8802;52.402;4.920;2023-04-01T17:53:43;12.60;99.90
17370;DHT22;8802;52.402;4.920;2023-04-01T17:56:32;12.60;99.90
17370;DHT22;8802;52.402;4.920;2023-04-01T17:59:09;12.60;99.90